sensor_id;sensor_type;location;lat;lon;timestamp;pressure;altitude;pressure_sealevel;temperature;humidity
42003;BME280;27693;50.506;30.832;2023-03-16T00:01:05;98989.83;;;7.80;85.30
42003;BME280;27693;50.506;30.832;2023-03-16T00:02:10;98994.84;;;7.83;85.35
42003;BME280;27693;50.506;30.832;2023-03-16T00:03:13;99000.73;;;7.87;85.22
42003;BME280;27693;50.506;30.832;2023-03-16T00:04:22;98988.89;;;8.00;84.63
42003;BME280;27693;50.506;30.832;2023-03-16T00:05:25;98984.20;;;7.90;84.04
42003;BME280;27693;50.506;30.832;2023-03-16T00:06:27;98985.59;;;7.97;84.07
42003;BME280;27693;50.506;30.832;2023-03-16T00:07:30;98980.77;;;8.08;83.69
42003;BME280;27693;50.506;30.832;2023-03-16T00:08:33;98987.34;;;8.15;83.31
42003;BME280;27693;50.506;30.832;2023-03-16T00:09:37;98981.00;;;8.21;82.92
42003;BME280;27693;50.506;30.832;2023-03-16T00:10:42;98990.25;;;8.27;82.74
42003;BME280;27693;50.506;30.832;2023-03-16T00:11:46;98987.69;;;8.08;83.24
42003;BME280;27693;50.506;30.832;2023-03-16T00:12:48;98987.78;;;7.87;83.53
42003;BME280;27693;50.506;30.832;2023-03-16T00:13:51;98990.32;;;7.89;84.53
42003;BME280;27693;50.506;30.832;2023-03-16T00:14:53;98986.16;;;8.04;84.08
42003;BME280;27693;50.506;30.832;2023-03-16T00:15:57;98982.72;;;8.03;83.92
42003;BME280;27693;50.506;30.832;2023-03-16T00:17:00;98977.83;;;7.97;84.05
42003;BME280;27693;50.506;30.832;2023-03-16T00:18:03;98980.50;;;7.95;84.35
42003;BME280;27693;50.506;30.832;2023-03-16T00:19:05;98978.47;;;8.02;84.69
42003;BME280;27693;50.506;30.832;2023-03-16T00:20:10;98975.59;;;8.08;84.37
42003;BME280;27693;50.506;30.832;2023-03-16T00:21:14;98982.16;;;8.15;83.78
42003;BME280;27693;50.506;30.832;2023-03-16T00:22:16;98981.78;;;8.23;83.50
42003;BME280;27693;50.506;30.832;2023-03-16T00:23:19;98983.09;;;8.32;82.98
42003;BME280;27693;50.506;30.832;2023-03-16T00:24:23;98973.58;;;8.33;82.99
42003;BME280;27693;50.506;30.832;2023-03-16T00:25:25;98977.38;;;8.25;82.52
42003;BME280;27693;50.506;30.832;2023-03-16T00:26:28;98975.13;;;8.18;82.81
42003;BME280;27693;50.506;30.832;2023-03-16T00:27:33;98971.33;;;8.25;82.75
42003;BME280;27693;50.506;30.832;2023-03-16T00:28:35;98972.88;;;8.29;82.33
42003;BME280;27693;50.506;30.832;2023-03-16T00:29:38;98971.97;;;8.30;82.49
42003;BME280;27693;50.506;30.832;2023-03-16T00:30:41;98976.86;;;8.36;82.19
42003;BME280;27693;50.506;30.832;2023-03-16T00:31:45;98979.80;;;8.28;82.08
42003;BME280;27693;50.506;30.832;2023-03-16T00:32:48;98977.16;;;8.30;82.25
42003;BME280;27693;50.506;30.832;2023-03-16T00:33:52;98971.03;;;8.31;81.93
42003;BME280;27693;50.506;30.832;2023-03-16T00:34:55;98975.69;;;8.24;82.44
42003;BME280;27693;50.506;30.832;2023-03-16T00:35:58;98978.80;;;8.13;82.76
42003;BME280;27693;50.506;30.832;2023-03-16T00:37:03;98979.37;;;8.01;82.74
42003;BME280;27693;50.506;30.832;2023-03-16T00:38:06;98980.58;;;7.94;83.56
42003;BME280;27693;50.506;30.832;2023-03-16T00:39:08;98978.41;;;7.84;83.81
42003;BME280;27693;50.506;30.832;2023-03-16T00:40:14;98976.17;;;7.96;83.85
42003;BME280;27693;50.506;30.832;2023-03-16T00:41:17;98974.12;;;8.03;84.05
42003;BME280;27693;50.506;30.832;2023-03-16T00:42:22;98983.28;;;8.10;83.98
42003;BME280;27693;50.506;30.832;2023-03-16T00:43:27;98980.50;;;7.95;83.67
42003;BME280;27693;50.506;30.832;2023-03-16T00:44:29;98982.27;;;7.95;83.91
42003;BME280;27693;50.506;30.832;2023-03-16T00:45:32;98980.91;;;7.86;84.06
42003;BME280;27693;50.506;30.832;2023-03-16T00:46:35;98988.19;;;7.97;84.42
42003;BME280;27693;50.506;30.832;2023-03-16T00:47:37;98982.88;;;8.00;84.25
42003;BME280;27693;50.506;30.832;2023-03-16T00:48:42;98981.48;;;7.93;84.37
42003;BME280;27693;50.506;30.832;2023-03-16T00:49:45;98991.42;;;8.02;84.40
42003;BME280;27693;50.506;30.832;2023-03-16T00:50:48;98982.88;;;8.00;84.14
42003;BME280;27693;50.506;30.832;2023-03-16T00:51:50;98989.45;;;8.07;84.05
42003;BME280;27693;50.506;30.832;2023-03-16T00:52:54;98986.08;;;8.05;83.89
42003;BME280;27693;50.506;30.832;2023-03-16T00:53:57;98988.09;;;8.18;83.61
42003;BME280;27693;50.506;30.832;2023-03-16T00:54:59;98983.25;;;8.29;82.94
42003;BME280;27693;50.506;30.832;2023-03-16T00:56:05;98984.85;;;8.31;82.42
42003;BME280;27693;50.506;30.832;2023-03-16T00:57:10;98984.85;;;8.31;82.58
42003;BME280;27693;50.506;30.832;2023-03-16T00:58:13;98987.17;;;8.19;82.32
42003;BME280;27693;50.506;30.832;2023-03-16T00:59:16;98982.61;;;8.24;82.69
42003;BME280;27693;50.506;30.832;2023-03-16T01:00:22;98987.34;;;8.15;83.14
42003;BME280;27693;50.506;30.832;2023-03-16T01:01:27;98984.27;;;8.07;83.47
42003;BME280;27693;50.506;30.832;2023-03-16T01:02:30;98986.94;;;8.06;83.77
42003;BME280;27693;50.506;30.832;2023-03-16T01:03:34;98985.30;;;8.03;83.63
42003;BME280;27693;50.506;30.832;2023-03-16T01:04:37;98985.95;;;8.08;84.05
42003;BME280;27693;50.506;30.832;2023-03-16T01:05:41;98984.75;;;8.15;84.00
42003;BME280;27693;50.506;30.832;2023-03-16T01:06:44;98987.17;;;8.19;83.74
42003;BME280;27693;50.506;30.832;2023-03-16T01:07:47;98984.56;;;8.01;83.59
42003;BME280;27693;50.506;30.832;2023-03-16T01:08:51;98983.57;;;8.04;83.79
42003;BME280;27693;50.506;30.832;2023-03-16T01:09:53;98986.65;;;8.12;83.50
42003;BME280;27693;50.506;30.832;2023-03-16T01:10:56;98984.27;;;8.07;83.76
42003;BME280;27693;50.506;30.832;2023-03-16T01:12:00;98986.86;;;8.07;83.75
42003;BME280;27693;50.506;30.832;2023-03-16T01:13:02;98983.15;;;8.13;83.74
42003;BME280;27693;50.506;30.832;2023-03-16T01:14:05;98988.38;;;8.11;83.69
42003;BME280;27693;50.506;30.832;2023-03-16T01:15:09;98992.81;;;8.09;83.60
42003;BME280;27693;50.506;30.832;2023-03-16T01:16:12;98991.66;;;8.15;83.82
42003;BME280;27693;50.506;30.832;2023-03-16T01:17:16;98993.08;;;8.03;83.61
42003;BME280;27693;50.506;30.832;2023-03-16T01:18:18;98997.52;;;8.01;83.72
42003;BME280;27693;50.506;30.832;2023-03-16T01:19:21;98997.85;;;7.93;83.78
42003;BME280;27693;50.506;30.832;2023-03-16T01:20:25;99004.17;;;7.88;83.98
42003;BME280;27693;50.506;30.832;2023-03-16T01:21:28;99001.92;;;7.80;84.39
42003;BME280;27693;50.506;30.832;2023-03-16T01:22:33;99006.68;;;7.70;84.79
42003;BME280;27693;50.506;30.832;2023-03-16T01:23:36;99010.83;;;7.74;85.31
42003;BME280;27693;50.506;30.832;2023-03-16T01:24:39;99004.17;;;7.68;85.34
42003;BME280;27693;50.506;30.832;2023-03-16T01:25:42;98999.56;;;7.75;85.54
42003;BME280;27693;50.506;30.832;2023-03-16T01:26:45;98996.69;;;7.81;85.62
42003;BME280;27693;50.506;30.832;2023-03-16T01:27:48;98995.34;;;7.92;85.34
42003;BME280;27693;50.506;30.832;2023-03-16T01:28:51;98994.15;;;7.99;85.07
42003;BME280;27693;50.506;30.832;2023-03-16T01:29:53;99002.08;;;7.96;84.51
42003;BME280;27693;50.506;30.832;2023-03-16T01:31:04;98993.66;;;7.91;84.73
42003;BME280;27693;50.506;30.832;2023-03-16T01:32:13;98995.45;;;8.08;84.54
42003;BME280;27693;50.506;30.832;2023-03-16T01:33:16;99000.11;;;7.82;84.29
42003;BME280;27693;50.506;30.832;2023-03-16T01:34:19;98992.41;;;7.61;84.72
42003;BME280;27693;50.506;30.832;2023-03-16T01:35:22;98998.11;;;7.30;85.40
42003;BME280;27693;50.506;30.832;2023-03-16T01:36:25;98993.36;;;7.21;86.36
42003;BME280;27693;50.506;30.832;2023-03-16T01:37:32;98997.23;;;7.10;87.02
42003;BME280;27693;50.506;30.832;2023-03-16T01:38:37;98993.16;;;7.04;87.75
42003;BME280;27693;50.506;30.832;2023-03-16T01:39:39;98996.97;;;7.16;88.20
42003;BME280;27693;50.506;30.832;2023-03-16T01:40:42;98995.72;;;7.25;88.13
42003;BME280;27693;50.506;30.832;2023-03-16T01:41:45;98993.48;;;7.17;87.76
42003;BME280;27693;50.506;30.832;2023-03-16T01:42:59;98999.44;;;7.19;87.83
42003;BME280;27693;50.506;30.832;2023-03-16T01:43:56;99002.30;;;7.13;87.68
42003;BME280;27693;50.506;30.832;2023-03-16T01:45:00;99002.53;;;7.07;87.77
42003;BME280;27693;50.506;30.832;2023-03-16T01:46:15;98997.50;;;7.04;88.06
42003;BME280;27693;50.506;30.832;2023-03-16T01:47:20;98998.15;;;6.88;88.52
42003;BME280;27693;50.506;30.832;2023-03-16T01:48:26;98998.93;;;6.70;88.88
42003;BME280;27693;50.506;30.832;2023-03-16T01:49:35;99000.36;;;6.77;89.42
42003;BME280;27693;50.506;30.832;2023-03-16T01:50:36;98992.98;;;6.88;89.72
42003;BME280;27693;50.506;30.832;2023-03-16T01:52:44;98992.59;;;6.98;89.49
42003;BME280;27693;50.506;30.832;2023-03-16T01:53:51;99002.80;;;7.01;89.50
42003;BME280;27693;50.506;30.832;2023-03-16T01:55:06;99004.44;;;7.03;89.22
42003;BME280;27693;50.506;30.832;2023-03-16T01:56:12;99010.05;;;7.13;89.18
42003;BME280;27693;50.506;30.832;2023-03-16T01:57:18;99007.70;;;7.07;88.47
42003;BME280;27693;50.506;30.832;2023-03-16T01:58:22;99011.07;;;7.09;88.68
42003;BME280;27693;50.506;30.832;2023-03-16T01:59:31;99014.56;;;7.08;88.51
42003;BME280;27693;50.506;30.832;2023-03-16T02:00:33;99012.83;;;7.09;88.34
42003;BME280;27693;50.506;30.832;2023-03-16T02:01:38;99013.84;;;7.04;88.27
42003;BME280;27693;50.506;30.832;2023-03-16T02:02:42;99017.37;;;7.03;88.26
42003;BME280;27693;50.506;30.832;2023-03-16T02:03:47;99021.34;;;7.11;88.49
42003;BME280;27693;50.506;30.832;2023-03-16T02:06:14;99015.32;;;7.31;88.01
42003;BME280;27693;50.506;30.832;2023-03-16T02:07:17;99023.87;;;7.33;87.67
42003;BME280;27693;50.506;30.832;2023-03-16T02:08:21;99024.91;;;7.08;87.33
42003;BME280;27693;50.506;30.832;2023-03-16T02:09:27;99019.61;;;7.11;87.83
42003;BME280;27693;50.506;30.832;2023-03-16T02:10:31;99022.45;;;7.26;88.21
42003;BME280;27693;50.506;30.832;2023-03-16T02:11:35;99016.61;;;7.41;88.02
42003;BME280;27693;50.506;30.832;2023-03-16T02:12:43;99013.52;;;7.52;87.79
42003;BME280;27693;50.506;30.832;2023-03-16T02:13:46;99013.98;;;7.62;87.29
42003;BME280;27693;50.506;30.832;2023-03-16T02:14:49;99012.42;;;7.58;86.68
42003;BME280;27693;50.506;30.832;2023-03-16T02:15:53;99012.57;;;7.55;86.67
42003;BME280;27693;50.506;30.832;2023-03-16T02:16:56;99014.73;;;7.64;86.71
42003;BME280;27693;50.506;30.832;2023-03-16T02:17:59;99013.55;;;7.71;86.51
42003;BME280;27693;50.506;30.832;2023-03-16T02:19:05;99017.45;;;7.80;85.95
42003;BME280;27693;50.506;30.832;2023-03-16T02:22:49;99020.69;;;7.66;85.38
42003;BME280;27693;50.506;30.832;2023-03-16T02:23:54;99019.16;;;7.62;85.84
42003;BME280;27693;50.506;30.832;2023-03-16T02:24:56;99025.55;;;7.34;85.95
42003;BME280;27693;50.506;30.832;2023-03-16T02:26:29;99024.91;;;7.08;86.60
42003;BME280;27693;50.506;30.832;2023-03-16T02:27:42;99030.86;;;7.10;87.35
42003;BME280;27693;50.506;30.832;2023-03-16T02:28:53;99029.62;;;6.98;87.60
42003;BME280;27693;50.506;30.832;2023-03-16T02:31:19;99027.56;;;7.07;88.08
42003;BME280;27693;50.506;30.832;2023-03-16T02:32:25;99025.87;;;7.06;88.01
42003;BME280;27693;50.506;30.832;2023-03-16T02:33:29;99033.08;;;6.99;88.57
42003;BME280;27693;50.506;30.832;2023-03-16T02:34:34;99025.95;;;7.04;88.66
42003;BME280;27693;50.506;30.832;2023-03-16T02:35:37;99029.25;;;7.08;88.59
42003;BME280;27693;50.506;30.832;2023-03-16T02:36:41;99029.97;;;7.11;88.36
42003;BME280;27693;50.506;30.832;2023-03-16T02:37:45;99031.31;;;6.99;87.98
42003;BME280;27693;50.506;30.832;2023-03-16T02:38:47;99040.05;;;6.97;88.05
42003;BME280;27693;50.506;30.832;2023-03-16T02:39:51;99026.14;;;6.99;88.23
42003;BME280;27693;50.506;30.832;2023-03-16T02:41:18;99016.39;;;7.06;88.60
42003;BME280;27693;50.506;30.832;2023-03-16T02:42:24;99018.56;;;7.15;88.48
42003;BME280;27693;50.506;30.832;2023-03-16T02:43:32;99011.39;;;7.22;88.12
42003;BME280;27693;50.506;30.832;2023-03-16T02:44:41;99018.55;;;7.36;88.07
42003;BME280;27693;50.506;30.832;2023-03-16T02:45:53;99014.77;;;7.24;87.33
42003;BME280;27693;50.506;30.832;2023-03-16T02:46:59;99012.56;;;7.15;87.30
42003;BME280;27693;50.506;30.832;2023-03-16T02:48:04;99009.27;;;7.11;87.33
42003;BME280;27693;50.506;30.832;2023-03-16T02:49:32;99002.07;;;7.18;87.51
42003;BME280;27693;50.506;30.832;2023-03-16T02:50:41;99011.13;;;7.28;87.63
42003;BME280;27693;50.506;30.832;2023-03-16T02:51:44;99011.36;;;7.43;87.34
42003;BME280;27693;50.506;30.832;2023-03-16T02:52:47;99014.06;;;7.21;86.83
42003;BME280;27693;50.506;30.832;2023-03-16T02:53:51;99013.79;;;7.27;87.12
42003;BME280;27693;50.506;30.832;2023-03-16T02:54:53;99010.03;;;7.34;87.32
42003;BME280;27693;50.506;30.832;2023-03-16T02:55:56;99008.19;;;7.36;87.27
42003;BME280;27693;50.506;30.832;2023-03-16T02:56:58;99010.69;;;7.18;87.22
42003;BME280;27693;50.506;30.832;2023-03-16T02:58:01;99010.69;;;7.18;87.22
42003;BME280;27693;50.506;30.832;2023-03-16T02:59:03;99021.28;;;7.33;87.41
42003;BME280;27693;50.506;30.832;2023-03-16T03:00:07;99016.86;;;7.35;86.82
42003;BME280;27693;50.506;30.832;2023-03-16T03:01:13;99013.17;;;7.41;86.70
42003;BME280;27693;50.506;30.832;2023-03-16T03:02:15;99015.91;;;7.57;86.56
42003;BME280;27693;50.506;30.832;2023-03-16T03:03:17;99014.93;;;7.59;86.02
42003;BME280;27693;50.506;30.832;2023-03-16T03:04:20;99017.94;;;7.69;85.81
42003;BME280;27693;50.506;30.832;2023-03-16T03:05:24;99018.44;;;7.77;85.70
42003;BME280;27693;50.506;30.832;2023-03-16T03:06:27;99021.75;;;7.62;84.72
42003;BME280;27693;50.506;30.832;2023-03-16T03:07:30;99028.77;;;7.39;84.32
42003;BME280;27693;50.506;30.832;2023-03-16T03:08:34;99026.21;;;7.18;85.13
42003;BME280;27693;50.506;30.832;2023-03-16T03:09:37;99020.38;;;7.34;85.65
42003;BME280;27693;50.506;30.832;2023-03-16T03:10:39;99019.40;;;7.37;85.81
42003;BME280;27693;50.506;30.832;2023-03-16T03:11:43;99019.34;;;7.17;85.81
42003;BME280;27693;50.506;30.832;2023-03-16T03:12:48;99025.55;;;7.34;85.96
42003;BME280;27693;50.506;30.832;2023-03-16T03:13:50;99022.77;;;7.58;85.62
42003;BME280;27693;50.506;30.832;2023-03-16T03:14:54;99024.15;;;7.46;84.97
42003;BME280;27693;50.506;30.832;2023-03-16T03:15:59;99025.40;;;7.37;85.15
42003;BME280;27693;50.506;30.832;2023-03-16T03:17:08;99028.77;;;7.39;85.18
42003;BME280;27693;50.506;30.832;2023-03-16T03:18:08;99030.03;;;7.49;85.32
42003;BME280;27693;50.506;30.832;2023-03-16T03:19:11;99027.13;;;7.57;85.28
42003;BME280;27693;50.506;30.832;2023-03-16T03:20:15;99023.90;;;7.71;84.85
42003;BME280;27693;50.506;30.832;2023-03-16T03:21:19;99025.18;;;7.81;84.58
42003;BME280;27693;50.506;30.832;2023-03-16T03:22:22;99029.00;;;7.73;84.23
42003;BME280;27693;50.506;30.832;2023-03-16T03:23:25;99032.17;;;7.79;84.27
42003;BME280;27693;50.506;30.832;2023-03-16T03:24:27;99037.41;;;7.59;84.08
42003;BME280;27693;50.506;30.832;2023-03-16T03:25:30;99035.20;;;7.49;84.07
42003;BME280;27693;50.506;30.832;2023-03-16T03:26:36;99033.28;;;7.55;84.51
42003;BME280;27693;50.506;30.832;2023-03-16T03:27:44;99028.62;;;7.42;84.48
42003;BME280;27693;50.506;30.832;2023-03-16T03:28:48;99025.01;;;7.46;84.97
42003;BME280;27693;50.506;30.832;2023-03-16T03:29:51;99026.70;;;7.47;84.86
42003;BME280;27693;50.506;30.832;2023-03-16T03:30:54;99029.12;;;7.50;84.70
42003;BME280;27693;50.506;30.832;2023-03-16T03:31:57;99027.83;;;7.61;84.65
42003;BME280;27693;50.506;30.832;2023-03-16T03:33:00;99029.36;;;7.65;84.36
42003;BME280;27693;50.506;30.832;2023-03-16T03:34:04;99028.67;;;7.80;84.13
42003;BME280;27693;50.506;30.832;2023-03-16T03:35:10;99030.77;;;7.91;83.36
42003;BME280;27693;50.506;30.832;2023-03-16T03:36:16;99026.42;;;7.92;83.22
42003;BME280;27693;50.506;30.832;2023-03-16T03:37:19;99026.84;;;8.02;82.78
42003;BME280;27693;50.506;30.832;2023-03-16T03:38:22;99023.61;;;8.15;82.36
42003;BME280;27693;50.506;30.832;2023-03-16T03:39:25;99027.36;;;8.27;81.56
42003;BME280;27693;50.506;30.832;2023-03-16T03:40:27;99028.05;;;8.31;81.29
42003;BME280;27693;50.506;30.832;2023-03-16T03:41:32;99025.11;;;8.39;80.86
42003;BME280;27693;50.506;30.832;2023-03-16T03:42:37;99033.23;;;8.31;80.59
42003;BME280;27693;50.506;30.832;2023-03-16T03:43:39;99042.08;;;8.27;80.82
42003;BME280;27693;50.506;30.832;2023-03-16T03:44:44;99033.98;;;8.15;80.91
42003;BME280;27693;50.506;30.832;2023-03-16T03:45:46;99033.20;;;8.13;81.21
42003;BME280;27693;50.506;30.832;2023-03-16T03:46:50;99032.09;;;8.00;81.36
42003;BME280;27693;50.506;30.832;2023-03-16T03:47:54;99030.20;;;7.84;81.64
42003;BME280;27693;50.506;30.832;2023-03-16T03:48:57;99025.86;;;7.66;82.05
42003;BME280;27693;50.506;30.832;2023-03-16T03:50:01;99029.81;;;7.14;82.95
42003;BME280;27693;50.506;30.832;2023-03-16T03:51:05;99030.77;;;6.70;85.17
42003;BME280;27693;50.506;30.832;2023-03-16T03:52:10;99030.09;;;6.45;86.77
42003;BME280;27693;50.506;30.832;2023-03-16T03:53:12;99030.70;;;6.51;87.77
42003;BME280;27693;50.506;30.832;2023-03-16T03:54:20;99023.09;;;6.69;88.02
42003;BME280;27693;50.506;30.832;2023-03-16T03:55:27;99032.81;;;6.84;88.09
42003;BME280;27693;50.506;30.832;2023-03-16T03:56:30;99030.86;;;6.90;87.74
42003;BME280;27693;50.506;30.832;2023-03-16T03:57:33;99030.48;;;6.99;87.72
42003;BME280;27693;50.506;30.832;2023-03-16T03:58:35;99027.64;;;6.84;87.12
42003;BME280;27693;50.506;30.832;2023-03-16T03:59:38;99036.55;;;6.77;87.38
42003;BME280;27693;50.506;30.832;2023-03-16T04:00:50;99040.10;;;6.75;87.50
42003;BME280;27693;50.506;30.832;2023-03-16T04:01:53;99037.53;;;6.52;87.90
42003;BME280;27693;50.506;30.832;2023-03-16T04:02:57;99044.09;;;6.61;88.31
42003;BME280;27693;50.506;30.832;2023-03-16T04:04:01;99039.21;;;6.53;88.31
42003;BME280;27693;50.506;30.832;2023-03-16T04:05:05;99042.23;;;6.65;88.54
42003;BME280;27693;50.506;30.832;2023-03-16T04:06:09;99045.78;;;6.62;88.27
42003;BME280;27693;50.506;30.832;2023-03-16T04:07:12;99044.09;;;6.39;88.68
42003;BME280;27693;50.506;30.832;2023-03-16T04:08:15;99042.54;;;6.35;89.15
42003;BME280;27693;50.506;30.832;2023-03-16T04:09:18;99043.19;;;6.40;89.38
42003;BME280;27693;50.506;30.832;2023-03-16T04:10:21;99048.49;;;6.37;89.45
42003;BME280;27693;50.506;30.832;2023-03-16T04:11:23;99051.98;;;6.36;89.73
42003;BME280;27693;50.506;30.832;2023-03-16T04:12:26;99044.62;;;6.47;89.95
42003;BME280;27693;50.506;30.832;2023-03-16T04:13:28;99048.72;;;6.53;89.59
42003;BME280;27693;50.506;30.832;2023-03-16T04:14:31;99044.52;;;6.50;89.32
42003;BME280;27693;50.506;30.832;2023-03-16T04:15:34;99045.28;;;6.52;89.39
42003;BME280;27693;50.506;30.832;2023-03-16T04:16:43;99048.97;;;6.47;89.26
42003;BME280;27693;50.506;30.832;2023-03-16T04:17:48;99055.45;;;6.35;89.64
42003;BME280;27693;50.506;30.832;2023-03-16T04:18:53;99047.05;;;6.30;89.47
42003;BME280;27693;50.506;30.832;2023-03-16T04:19:56;99061.26;;;5.94;89.97
42003;BME280;27693;50.506;30.832;2023-03-16T04:20:59;99044.61;;;5.79;90.56
42003;BME280;27693;50.506;30.832;2023-03-16T04:22:02;99048.66;;;5.63;91.35
42003;BME280;27693;50.506;30.832;2023-03-16T04:23:05;99049.66;;;5.58;91.87
42003;BME280;27693;50.506;30.832;2023-03-16T04:24:08;99045.95;;;5.66;91.98
42003;BME280;27693;50.506;30.832;2023-03-16T04:25:13;99044.91;;;5.71;92.03
42003;BME280;27693;50.506;30.832;2023-03-16T04:26:17;99049.77;;;5.79;92.14
42003;BME280;27693;50.506;30.832;2023-03-16T04:27:19;99046.92;;;5.87;92.05
42003;BME280;27693;50.506;30.832;2023-03-16T04:28:22;99047.45;;;5.95;91.87
42003;BME280;27693;50.506;30.832;2023-03-16T04:29:27;99050.00;;;5.97;91.56
42003;BME280;27693;50.506;30.832;2023-03-16T04:30:31;99048.11;;;6.02;91.65
42003;BME280;27693;50.506;30.832;2023-03-16T04:31:44;99049.27;;;5.93;91.41
42003;BME280;27693;50.506;30.832;2023-03-16T04:32:47;99046.49;;;5.98;91.63
42003;BME280;27693;50.506;30.832;2023-03-16T04:33:51;99051.11;;;6.13;91.68
42003;BME280;27693;50.506;30.832;2023-03-16T04:34:56;99053.22;;;6.26;91.46
42003;BME280;27693;50.506;30.832;2023-03-16T04:36:00;99049.09;;;6.21;90.53
42003;BME280;27693;50.506;30.832;2023-03-16T04:37:03;99052.08;;;6.11;90.63
42003;BME280;27693;50.506;30.832;2023-03-16T04:38:07;99051.35;;;6.07;90.83
42003;BME280;27693;50.506;30.832;2023-03-16T04:39:13;99058.20;;;6.08;90.92
42003;BME280;27693;50.506;30.832;2023-03-16T04:40:16;99050.39;;;6.10;90.71
42003;BME280;27693;50.506;30.832;2023-03-16T04:41:21;99043.60;;;6.07;90.92
42003;BME280;27693;50.506;30.832;2023-03-16T04:42:26;99048.05;;;6.03;91.02
42003;BME280;27693;50.506;30.832;2023-03-16T04:43:29;99052.25;;;6.06;90.99
42003;BME280;27693;50.506;30.832;2023-03-16T04:44:35;99054.38;;;5.95;91.17
42003;BME280;27693;50.506;30.832;2023-03-16T04:45:39;99050.83;;;5.73;91.26
42003;BME280;27693;50.506;30.832;2023-03-16T04:46:43;99063.89;;;5.45;92.39
42003;BME280;27693;50.506;30.832;2023-03-16T04:47:47;99067.70;;;5.35;93.12
42003;BME280;27693;50.506;30.832;2023-03-16T04:48:51;99070.16;;;5.38;93.75
42003;BME280;27693;50.506;30.832;2023-03-16T04:49:54;99066.78;;;5.36;93.96
42003;BME280;27693;50.506;30.832;2023-03-16T04:50:58;99067.92;;;5.28;94.11
42003;BME280;27693;50.506;30.832;2023-03-16T04:52:01;99062.20;;;5.19;94.54
42003;BME280;27693;50.506;30.832;2023-03-16T04:53:03;99068.73;;;5.04;95.08
42003;BME280;27693;50.506;30.832;2023-03-16T04:54:07;99067.94;;;5.02;95.49
42003;BME280;27693;50.506;30.832;2023-03-16T04:55:11;99067.05;;;5.03;95.94
42003;BME280;27693;50.506;30.832;2023-03-16T04:56:14;99071.78;;;5.15;96.14
42003;BME280;27693;50.506;30.832;2023-03-16T04:57:20;99075.08;;;5.20;96.00
42003;BME280;27693;50.506;30.832;2023-03-16T04:58:24;99078.42;;;5.22;95.92
42003;BME280;27693;50.506;30.832;2023-03-16T04:59:28;99071.39;;;5.27;95.89
42003;BME280;27693;50.506;30.832;2023-03-16T05:00:53;99087.02;;;5.23;95.76
42003;BME280;27693;50.506;30.832;2023-03-16T05:01:58;99076.85;;;5.18;95.98
42003;BME280;27693;50.506;30.832;2023-03-16T05:03:00;99088.12;;;5.16;95.83
42003;BME280;27693;50.506;30.832;2023-03-16T05:04:04;99083.17;;;5.09;96.02
42003;BME280;27693;50.506;30.832;2023-03-16T05:05:08;99089.59;;;5.23;96.32
42003;BME280;27693;50.506;30.832;2023-03-16T05:06:11;99091.91;;;5.31;95.99
42003;BME280;27693;50.506;30.832;2023-03-16T05:07:14;99081.16;;;5.43;96.02
42003;BME280;27693;50.506;30.832;2023-03-16T05:08:19;99086.00;;;5.52;95.58
42003;BME280;27693;50.506;30.832;2023-03-16T05:09:23;99086.52;;;5.62;95.09
42003;BME280;27693;50.506;30.832;2023-03-16T05:10:27;99081.58;;;5.56;94.54
42003;BME280;27693;50.506;30.832;2023-03-16T05:11:31;99082.45;;;5.31;94.45
42003;BME280;27693;50.506;30.832;2023-03-16T05:12:34;99084.86;;;5.10;95.06
42003;BME280;27693;50.506;30.832;2023-03-16T05:13:39;99086.10;;;4.99;95.81
42003;BME280;27693;50.506;30.832;2023-03-16T05:14:41;99093.09;;;4.95;96.31
42003;BME280;27693;50.506;30.832;2023-03-16T05:15:52;99094.44;;;5.07;96.53
42003;BME280;27693;50.506;30.832;2023-03-16T05:16:59;99095.91;;;5.14;96.26
42003;BME280;27693;50.506;30.832;2023-03-16T05:18:03;99099.27;;;5.16;96.35
42003;BME280;27693;50.506;30.832;2023-03-16T05:19:07;99101.23;;;5.35;96.32
42003;BME280;27693;50.506;30.832;2023-03-16T05:20:11;99093.16;;;5.44;95.81
42003;BME280;27693;50.506;30.832;2023-03-16T05:21:18;99099.13;;;5.46;95.18
42003;BME280;27693;50.506;30.832;2023-03-16T05:22:29;99098.38;;;5.42;94.92
42003;BME280;27693;50.506;30.832;2023-03-16T05:23:33;99101.39;;;5.55;94.90
42003;BME280;27693;50.506;30.832;2023-03-16T05:24:37;99101.17;;;5.62;94.61
42003;BME280;27693;50.506;30.832;2023-03-16T05:25:40;99101.70;;;5.46;94.05
42003;BME280;27693;50.506;30.832;2023-03-16T05:26:44;99104.70;;;5.34;94.06
42003;BME280;27693;50.506;30.832;2023-03-16T05:27:49;99107.38;;;5.31;94.51
42003;BME280;27693;50.506;30.832;2023-03-16T05:29:00;99106.95;;;5.43;94.86
42003;BME280;27693;50.506;30.832;2023-03-16T05:30:05;99115.40;;;5.48;94.44
42003;BME280;27693;50.506;30.832;2023-03-16T05:31:09;99119.85;;;5.43;94.61
42003;BME280;27693;50.506;30.832;2023-03-16T05:32:14;99119.82;;;5.44;94.51
42003;BME280;27693;50.506;30.832;2023-03-16T05:33:18;99121.81;;;5.62;94.72
42003;BME280;27693;50.506;30.832;2023-03-16T05:34:22;99122.22;;;5.49;93.89
42003;BME280;27693;50.506;30.832;2023-03-16T05:35:26;99128.39;;;5.45;94.08
42003;BME280;27693;50.506;30.832;2023-03-16T05:36:31;99126.32;;;5.30;94.11
42003;BME280;27693;50.506;30.832;2023-03-16T05:37:35;99131.48;;;5.30;94.28
42003;BME280;27693;50.506;30.832;2023-03-16T05:38:40;99122.53;;;5.15;94.80
42003;BME280;27693;50.506;30.832;2023-03-16T05:39:45;99135.28;;;5.19;95.08
42003;BME280;27693;50.506;30.832;2023-03-16T05:40:48;99127.69;;;5.15;95.38
42003;BME280;27693;50.506;30.832;2023-03-16T05:41:54;99132.28;;;5.32;95.57
42003;BME280;27693;50.506;30.832;2023-03-16T05:42:58;99131.89;;;5.17;95.47
42003;BME280;27693;50.506;30.832;2023-03-16T05:44:02;99145.88;;;5.10;95.40
42003;BME280;27693;50.506;30.832;2023-03-16T05:45:08;99137.05;;;5.17;95.67
42003;BME280;27693;50.506;30.832;2023-03-16T05:46:13;99142.41;;;5.11;95.65
42003;BME280;27693;50.506;30.832;2023-03-16T05:47:16;99137.94;;;5.16;95.90
42003;BME280;27693;50.506;30.832;2023-03-16T05:48:20;99139.89;;;5.09;95.73